createdAt,value
2015-12-23T00:00:42.231Z,20
2015-12-23T00:01:42.297Z,20
2015-12-23T00:02:42.065Z,20.03
2015-12-23T00:03:42.037Z,19.99
2015-12-23T00:04:41.977Z,20.06
2015-12-23T00:05:41.964Z,19.96
2015-12-23T00:06:41.936Z,20.04
2015-12-23T00:07:41.907Z,20.04
2015-12-23T00:08:41.863Z,20.04
2015-12-23T00:09:41.866Z,20.1
2015-12-23T00:10:41.822Z,20.18
2015-12-23T00:11:41.777Z,20.09
2015-12-23T00:12:41.749Z,20.19
2015-12-23T00:13:41.736Z,20.14
2015-12-23T00:14:41.723Z,20.07
2015-12-23T00:15:41.710Z,20.06
2015-12-23T00:16:41.666Z,20.09
2015-12-23T00:17:41.622Z,19.99
2015-12-23T00:18:41.624Z,20.02
2015-12-23T00:19:41.596Z,20.09
2015-12-23T00:20:41.552Z,20.07
2015-12-23T00:21:41.555Z,20
2015-12-23T00:22:41.480Z,20.04
2015-12-23T00:23:41.466Z,20.04
2015-12-23T00:24:41.438Z,20
2015-12-23T00:25:41.409Z,20.02
2015-12-23T00:26:41.366Z,19.88
2015-12-23T00:27:41.353Z,20
2015-12-23T00:28:41.308Z,19.91
2015-12-23T00:29:41.296Z,19.96
2015-12-23T00:30:41.266Z,19.96
2015-12-23T00:31:41.222Z,19.91
2015-12-23T00:32:41.194Z,19.89
2015-12-23T00:33:41.165Z,20
2015-12-23T00:34:41.168Z,19.94
2015-12-23T00:35:41.171Z,19.88
2015-12-23T00:36:41.096Z,19.96
2015-12-23T00:37:41.052Z,19.89
2015-12-23T00:38:41.180Z,19.91
2015-12-23T00:39:41.010Z,19.94
2015-12-23T00:40:41.012Z,19.94
2015-12-23T00:41:40.938Z,19.99
2015-12-23T00:42:40.924Z,19.99
2015-12-23T00:43:40.943Z,19.86
2015-12-23T00:44:40.852Z,19.86
2015-12-23T00:45:40.823Z,19.95
2015-12-23T00:46:40.045Z,19.86
2015-12-23T00:47:40.766Z,19.85
2015-12-23T00:48:40.738Z,19.85
2015-12-23T00:49:40.740Z,19.85
2015-12-23T00:50:40.696Z,19.82
2015-12-23T00:51:40.652Z,19.92
2015-12-23T00:52:40.624Z,19.88
2015-12-23T00:53:40.577Z,19.88
2015-12-23T00:54:40.579Z,19.86
2015-12-23T00:55:40.697Z,19.84
2015-12-23T00:56:40.601Z,19.89
2015-12-23T00:57:40.963Z,19.85
2015-12-23T00:58:40.498Z,19.85
2015-12-23T00:59:40.468Z,19.81
2015-12-23T01:00:40.533Z,19.85
2015-12-23T01:01:40.536Z,19.84
2015-12-23T01:02:40.929Z,19.95
2015-12-23T01:03:40.681Z,19.84
2015-12-23T01:04:40.669Z,19.84
2015-12-23T01:05:40.875Z,19.85
2015-12-23T01:06:40.487Z,19.94
2015-12-23T01:07:40.522Z,19.85
2015-12-23T01:08:41.008Z,19.96
2015-12-23T01:09:40.809Z,19.82
2015-12-23T01:10:40.781Z,19.94
2015-12-23T01:11:40.345Z,19.89
2015-12-23T01:12:40.442Z,19.88
2015-12-23T01:13:40.632Z,19.95
2015-12-23T01:14:40.542Z,19.96
2015-12-23T01:15:40.340Z,19.89
2015-12-23T01:16:40.234Z,19.82
2015-12-23T01:17:40.252Z,19.95
2015-12-23T01:18:40.645Z,19.86
2015-12-23T01:19:40.648Z,19.92
2015-12-23T01:20:40.291Z,19.94
2015-12-23T01:21:40.106Z,19.96
2015-12-23T01:22:40.095Z,19.94
2015-12-23T01:23:40.097Z,19.94
2015-12-23T01:24:40.022Z,19.95
2015-12-23T01:25:39.461Z,19.82
2015-12-23T01:26:40.246Z,19.92
2015-12-23T01:27:39.873Z,19.91
2015-12-23T01:28:39.923Z,19.95
2015-12-23T01:29:39.910Z,19.91
2015-12-23T01:30:39.303Z,19.92
2015-12-23T01:31:39.900Z,19.92
2015-12-23T01:32:39.824Z,19.99
2015-12-23T01:33:40.468Z,19.91
2015-12-23T01:34:40.580Z,19.94
2015-12-23T01:35:43.817Z,19.95
2015-12-23T01:36:40.008Z,19.99
2015-12-23T01:37:39.729Z,19.86
2015-12-23T01:38:39.811Z,19.92
2015-12-23T01:39:39.985Z,19.92
2015-12-23T01:40:39.690Z,19.96
2015-12-23T01:41:39.506Z,19.95
2015-12-23T01:42:39.586Z,19.95
2015-12-23T01:43:39.508Z,19.86
2015-12-23T01:44:39.652Z,19.96
2015-12-23T01:45:39.655Z,19.91
2015-12-23T01:46:39.376Z,19.99
2015-12-23T01:47:39.300Z,19.94
2015-12-23T01:48:39.053Z,19.95
2015-12-23T01:49:38.993Z,19.84
2015-12-23T01:50:38.965Z,19.88
2015-12-23T01:51:39.155Z,19.88
2015-12-23T01:52:38.924Z,19.96
2015-12-23T01:53:38.863Z,19.85
2015-12-23T01:54:38.851Z,19.94
2015-12-23T01:55:38.822Z,19.94
2015-12-23T01:56:38.809Z,19.99
2015-12-23T01:57:38.765Z,19.92
2015-12-23T01:58:38.737Z,19.85
2015-12-23T01:59:38.708Z,19.94
2015-12-23T02:00:38.679Z,19.84
2015-12-23T02:01:38.635Z,19.96
2015-12-23T02:02:38.623Z,19.89
2015-12-23T02:03:38.610Z,19.82
2015-12-23T02:04:38.565Z,19.94
2015-12-23T02:05:38.679Z,19.94
2015-12-23T02:06:40.306Z,19.85
2015-12-23T02:07:39.105Z,19.88
2015-12-23T02:08:39.280Z,19.92
2015-12-23T02:09:39.017Z,19.86
2015-12-23T02:10:39.551Z,19.86
2015-12-23T02:11:38.366Z,19.92
2015-12-23T02:12:38.353Z,19.95
2015-12-23T02:13:38.326Z,19.82
2015-12-23T02:14:38.266Z,19.86
2015-12-23T02:15:38.252Z,19.86
2015-12-23T02:16:38.224Z,19.94
2015-12-23T02:17:38.226Z,19.85
2015-12-23T02:18:38.167Z,19.94
2015-12-23T02:19:38.138Z,19.88
2015-12-23T02:20:38.220Z,19.86
2015-12-23T02:21:38.097Z,19.91
2015-12-23T02:22:38.084Z,19.95
2015-12-23T02:23:38.040Z,19.89
2015-12-23T02:24:38.011Z,19.88
2015-12-23T02:25:38.187Z,19.95
2015-12-23T02:26:37.939Z,19.88
2015-12-23T02:27:38.020Z,19.95
2015-12-23T02:28:37.942Z,19.88
2015-12-23T02:29:37.928Z,19.85
2015-12-23T02:30:37.837Z,19.86
2015-12-23T02:31:37.779Z,19.92
2015-12-23T02:32:37.781Z,19.84
2015-12-23T02:33:37.768Z,19.85
2015-12-23T02:34:37.709Z,19.85
2015-12-23T02:35:37.664Z,19.84
2015-12-23T02:36:37.636Z,19.82
2015-12-23T02:37:37.623Z,19.91
2015-12-23T02:38:37.626Z,19.79
2015-12-23T02:39:37.565Z,19.88
2015-12-23T02:40:37.537Z,19.82
2015-12-23T02:41:37.524Z,19.82
2015-12-23T02:42:37.495Z,19.85
2015-12-23T02:43:37.452Z,19.84
2015-12-23T02:44:37.423Z,19.81
2015-12-23T02:45:46.472Z,19.86
2015-12-23T02:46:37.381Z,19.89
2015-12-23T02:47:37.322Z,19.88
2015-12-23T02:48:37.308Z,19.85
2015-12-23T02:49:37.327Z,19.84
2015-12-23T02:50:37.284Z,19.89
2015-12-23T02:51:37.520Z,19.82
2015-12-23T02:52:37.195Z,19.84
2015-12-23T02:53:37.167Z,19.85
2015-12-23T02:54:37.169Z,19.82
2015-12-23T02:55:37.172Z,19.85
2015-12-23T02:56:37.081Z,19.86
2015-12-23T02:57:37.052Z,19.86
2015-12-23T02:58:37.228Z,19.86
2015-12-23T02:59:37.058Z,19.86
2015-12-23T03:00:36.952Z,19.86
2015-12-23T03:01:36.959Z,19.84
2015-12-23T03:02:36.946Z,19.84
2015-12-23T03:03:36.808Z,19.86
2015-12-23T03:04:36.842Z,19.86
2015-12-23T03:05:36.830Z,19.88
2015-12-23T03:06:36.785Z,19.82
2015-12-23T03:07:36.773Z,19.84
2015-12-23T03:08:36.728Z,19.85
2015-12-23T03:09:36.715Z,19.86
2015-12-23T03:10:36.733Z,19.85
2015-12-23T03:11:36.658Z,19.82
2015-12-23T03:12:36.613Z,19.81
2015-12-23T03:13:36.601Z,19.86
2015-12-23T03:14:36.698Z,19.81
2015-12-23T03:15:36.557Z,19.88
2015-12-23T03:16:36.560Z,19.82
2015-12-23T03:17:36.500Z,19.84
2015-12-23T03:18:36.457Z,19.85
2015-12-23T03:19:36.427Z,19.81
2015-12-23T03:20:36.382Z,19.88
2015-12-23T03:21:36.355Z,19.88
2015-12-23T03:22:36.468Z,19.86
2015-12-23T03:23:36.329Z,19.84
2015-12-23T03:24:36.285Z,19.88
2015-12-23T03:25:36.257Z,19.88
2015-12-23T03:26:36.228Z,19.86
2015-12-23T03:27:36.246Z,19.89
2015-12-23T03:28:36.374Z,19.84
2015-12-23T03:29:36.142Z,19.76
2015-12-23T03:30:36.098Z,19.88
2015-12-23T03:31:36.101Z,19.88
2015-12-23T03:32:36.073Z,19.81
2015-12-23T03:33:36.012Z,19.85
2015-12-23T03:34:36.031Z,19.81
2015-12-23T03:35:35.815Z,19.79
2015-12-23T03:36:35.943Z,19.84
2015-12-23T03:37:35.914Z,19.84
2015-12-23T03:38:35.870Z,19.91
2015-12-23T03:39:35.842Z,19.76
2015-12-23T03:40:35.845Z,19.86
2015-12-23T03:41:35.784Z,19.86
2015-12-23T03:42:35.756Z,19.84
2015-12-23T03:43:35.728Z,19.73
2015-12-23T03:44:35.731Z,19.88
2015-12-23T03:45:35.670Z,19.79
2015-12-23T03:46:35.627Z,19.79
2015-12-23T03:47:35.614Z,19.76
2015-12-23T03:48:35.585Z,19.73
2015-12-23T03:49:35.620Z,19.73
2015-12-23T03:50:35.544Z,19.86
2015-12-23T03:51:35.515Z,19.76
2015-12-23T03:52:35.487Z,19.81
2015-12-23T03:53:35.287Z,19.84
2015-12-23T03:54:35.431Z,19.77
2015-12-23T03:55:35.401Z,19.88
2015-12-23T03:56:35.373Z,19.88
2015-12-23T03:57:35.329Z,19.82
2015-12-23T03:58:35.300Z,19.84
2015-12-23T03:59:35.287Z,19.81
2015-12-23T04:00:35.259Z,19.81
2015-12-23T04:01:35.245Z,19.84
2015-12-23T04:02:35.202Z,19.84
2015-12-23T04:03:35.283Z,19.88
2015-12-23T04:04:35.129Z,19.88
2015-12-23T04:05:35.210Z,19.88
2015-12-23T04:06:35.291Z,19.84
2015-12-23T04:07:34.871Z,19.88
2015-12-23T04:08:35.046Z,19.85
2015-12-23T04:09:35.017Z,19.88
2015-12-23T04:10:34.971Z,19.81
2015-12-23T04:11:34.926Z,19.85
2015-12-23T04:12:34.913Z,19.84
2015-12-23T04:13:34.885Z,19.88
2015-12-23T04:14:34.888Z,19.85
2015-12-23T04:15:34.812Z,19.88
2015-12-23T04:16:34.784Z,19.81
2015-12-23T04:17:34.755Z,19.84
2015-12-23T04:18:34.758Z,19.86
2015-12-23T04:19:34.699Z,19.79
2015-12-23T04:20:34.669Z,19.81
2015-12-23T04:21:34.641Z,19.88
2015-12-23T04:22:34.972Z,19.82
2015-12-23T04:23:34.599Z,19.84
2015-12-23T04:24:34.571Z,19.88
2015-12-23T04:25:34.527Z,19.88
2015-12-23T04:26:34.515Z,19.88
2015-12-23T04:27:34.470Z,19.84
2015-12-23T04:28:34.004Z,19.79
2015-12-23T04:29:34.429Z,19.89
2015-12-23T04:30:34.400Z,19.79
2015-12-23T04:31:34.357Z,19.76
2015-12-23T04:32:34.327Z,19.79
2015-12-23T04:33:34.362Z,19.79
2015-12-23T04:34:34.301Z,19.88
2015-12-23T04:35:34.226Z,19.77
2015-12-23T04:36:34.229Z,19.76
2015-12-23T04:37:34.170Z,19.92
2015-12-23T04:38:34.167Z,19.74
2015-12-23T04:39:34.126Z,19.77
2015-12-23T04:40:34.147Z,19.76
2015-12-23T04:41:34.028Z,19.76
2015-12-23T04:42:33.987Z,19.79
2015-12-23T04:43:33.951Z,19.67
2015-12-23T04:44:33.933Z,19.79
2015-12-23T04:45:33.869Z,19.79
2015-12-23T04:46:33.852Z,19.76
2015-12-23T04:47:33.819Z,19.73
2015-12-23T04:48:33.773Z,19.69
2015-12-23T04:49:33.743Z,19.77
2015-12-23T04:50:33.790Z,19.69
2015-12-23T04:51:33.713Z,19.62
2015-12-23T04:52:33.653Z,19.7
2015-12-23T04:53:33.639Z,19.74
2015-12-23T04:54:33.610Z,19.7
2015-12-23T04:55:33.596Z,19.7
2015-12-23T04:56:33.583Z,19.7
2015-12-23T04:57:33.522Z,19.63
2015-12-23T05:01:32.515Z,19.73
2015-12-23T05:02:23.471Z,19.71
2015-12-23T05:03:23.441Z,19.67
2015-12-23T05:04:23.430Z,19.64
2015-12-23T05:05:23.370Z,19.67
2015-12-23T05:06:23.357Z,19.69
2015-12-23T05:07:23.328Z,19.7
2015-12-23T05:08:23.424Z,19.69
2015-12-23T05:09:23.287Z,19.67
2015-12-23T05:10:23.243Z,19.71
2015-12-23T05:11:23.167Z,19.63
2015-12-23T05:12:23.404Z,19.66
2015-12-23T05:13:23.063Z,19.67
2015-12-23T05:14:23.024Z,19.7
2015-12-23T05:15:23.074Z,19.54
2015-12-23T05:16:22.982Z,19.54
2015-12-23T05:17:22.938Z,19.62
2015-12-23T05:18:22.910Z,19.55
2015-12-23T05:19:22.944Z,19.64
2015-12-23T05:20:22.868Z,19.59
2015-12-23T05:21:22.871Z,19.58
2015-12-23T05:22:22.812Z,19.63
2015-12-23T05:23:22.768Z,19.58
2015-12-23T05:24:22.801Z,19.55
2015-12-23T05:25:23.257Z,19.62
2015-12-23T05:26:22.682Z,19.56
2015-12-23T05:27:22.670Z,19.59
2015-12-23T05:28:22.656Z,19.56
2015-12-23T05:29:22.628Z,19.56
2015-12-23T05:30:22.646Z,19.59
2015-12-23T05:31:22.602Z,19.56
2015-12-23T05:32:22.542Z,19.59
2015-12-23T05:33:22.482Z,19.58
2015-12-23T05:34:22.531Z,19.48
2015-12-23T05:35:22.425Z,19.56
2015-12-23T05:36:22.412Z,19.49
2015-12-23T05:37:22.415Z,19.52
2015-12-23T05:38:22.353Z,19.51
2015-12-23T05:39:22.309Z,19.58
2015-12-23T05:40:22.311Z,19.54
2015-12-23T05:41:22.251Z,19.63
2015-12-23T05:42:22.223Z,19.52
2015-12-23T05:43:22.210Z,19.56
2015-12-23T05:44:22.197Z,19.52
2015-12-23T05:45:22.169Z,19.56
2015-12-23T05:46:24.655Z,19.47
2015-12-23T05:47:22.097Z,19.51
2015-12-23T05:48:22.052Z,19.49
2015-12-23T05:49:22.023Z,19.51
2015-12-23T05:50:21.994Z,19.49
2015-12-23T05:51:21.983Z,19.52
2015-12-23T05:52:21.953Z,19.47
2015-12-23T05:53:21.909Z,19.51
2015-12-23T05:54:21.881Z,19.47
2015-12-23T05:55:21.853Z,19.54
2015-12-23T05:56:21.840Z,19.55
2015-12-23T05:57:21.811Z,19.52
2015-12-23T05:58:21.908Z,19.52
2015-12-23T05:59:21.739Z,19.51
2015-12-23T06:00:21.711Z,19.52
2015-12-23T06:01:21.681Z,19.48
2015-12-23T06:02:21.653Z,19.51
2015-12-23T06:03:21.624Z,19.48
2015-12-23T06:04:21.627Z,19.51
2015-12-23T06:05:21.613Z,19.47
2015-12-23T06:06:21.539Z,19.4
2015-12-23T06:07:21.511Z,19.36
2015-12-23T06:08:21.482Z,19.36
2015-12-23T06:09:21.452Z,19.36
2015-12-23T06:10:21.441Z,19.45
2015-12-23T06:11:21.397Z,19.51
2015-12-23T06:12:21.368Z,19.36
2015-12-23T06:13:21.324Z,19.51
2015-12-23T06:14:21.155Z,19.39
2015-12-23T06:15:21.282Z,19.4
2015-12-23T06:16:21.270Z,19.47
2015-12-23T06:17:21.210Z,19.4
2015-12-23T06:18:21.197Z,19.41
2015-12-23T06:19:21.185Z,19.41
2015-12-23T06:20:21.187Z,19.37
2015-12-23T06:21:21.111Z,19.4
2015-12-23T06:22:21.068Z,19.4
2015-12-23T06:23:21.054Z,19.44
2015-12-23T06:24:20.994Z,19.27
2015-12-23T06:25:21.544Z,19.39
2015-12-23T06:26:20.954Z,19.29
2015-12-23T06:27:20.924Z,19.29
2015-12-23T06:28:21.271Z,19.29
2015-12-23T06:29:20.849Z,19.39
2015-12-23T06:30:20.851Z,19.33
2015-12-23T06:31:21.010Z,19.39
2015-12-23T06:32:20.779Z,19.3
2015-12-23T06:33:20.751Z,19.31
2015-12-23T06:34:20.769Z,19.34
2015-12-23T06:35:20.693Z,19.27
2015-12-23T06:36:20.665Z,19.31
2015-12-23T06:37:20.620Z,19.37
2015-12-23T06:38:20.608Z,19.3
2015-12-23T06:39:20.876Z,19.27
2015-12-23T06:40:20.535Z,19.36
2015-12-23T06:41:20.507Z,19.33
2015-12-23T06:42:20.525Z,19.31
2015-12-23T06:43:20.481Z,19.27
2015-12-23T06:44:20.437Z,19.24
2015-12-23T06:45:20.409Z,19.31
2015-12-23T06:46:28.193Z,19.27
2015-12-23T06:47:20.336Z,19.26
2015-12-23T06:48:20.307Z,19.26
2015-12-23T06:49:20.279Z,19.29
2015-12-23T06:50:20.251Z,19.24
2015-12-23T06:51:20.237Z,19.27
2015-12-23T06:52:20.192Z,19.22
2015-12-23T06:53:20.165Z,19.29
2015-12-23T06:54:20.136Z,19.29
2015-12-23T06:55:20.139Z,19.27
2015-12-23T06:56:20.095Z,19.29
2015-12-23T06:57:20.036Z,19.19
2015-12-23T06:58:20.023Z,19.19
2015-12-23T06:59:20.009Z,19.26
2015-12-23T07:00:19.950Z,19.26
2015-12-23T07:01:19.922Z,19.27
2015-12-23T07:02:19.893Z,19.19
2015-12-23T07:03:19.880Z,19.22
2015-12-23T07:04:19.852Z,19.21
2015-12-23T07:05:19.886Z,19.19
2015-12-23T07:06:19.811Z,19.27
2015-12-23T07:07:19.859Z,19.24
2015-12-23T07:08:19.737Z,19.21
2015-12-23T07:09:19.709Z,19.26
2015-12-23T07:10:19.664Z,19.27
2015-12-23T07:11:19.699Z,19.22
2015-12-23T07:12:19.702Z,19.27
2015-12-23T07:13:19.580Z,19.19
2015-12-23T07:14:19.550Z,19.22
2015-12-23T07:15:19.538Z,19.21
2015-12-23T07:16:19.494Z,19.22
2015-12-23T07:17:19.511Z,19.26
2015-12-23T07:18:19.449Z,19.19
2015-12-23T07:19:19.436Z,19.22
2015-12-23T07:20:19.408Z,19.22
2015-12-23T07:21:19.333Z,19.22
2015-12-23T07:22:19.319Z,19.18
2015-12-23T07:23:19.338Z,19.24
2015-12-23T07:24:19.277Z,19.22
2015-12-23T07:25:19.235Z,19.24
2015-12-23T07:26:19.221Z,19.22
2015-12-23T07:27:19.193Z,19.26
2015-12-23T07:28:19.133Z,19.22
2015-12-23T07:29:19.183Z,19.24
2015-12-23T07:30:19.076Z,19.29
2015-12-23T07:31:19.079Z,19.26
2015-12-23T07:32:19.050Z,19.33
2015-12-23T07:33:19.007Z,19.21
2015-12-23T07:34:18.963Z,19.22
2015-12-23T07:35:18.933Z,19.19
2015-12-23T07:36:18.936Z,19.3
2015-12-23T07:37:18.876Z,19.24
2015-12-23T07:38:18.895Z,19.19
2015-12-23T07:39:18.835Z,19.26
2015-12-23T07:40:18.854Z,19.24
2015-12-23T07:41:18.763Z,19.26
2015-12-23T07:42:18.749Z,19.24
2015-12-23T07:43:18.705Z,19.27
2015-12-23T07:44:18.693Z,19.31
2015-12-23T07:45:18.665Z,19.27
2015-12-23T07:46:18.620Z,19.22
2015-12-23T07:47:18.576Z,19.22
2015-12-23T07:48:18.438Z,19.26
2015-12-23T07:49:18.550Z,19.22
2015-12-23T07:50:18.507Z,19.18
2015-12-23T07:51:18.477Z,19.27
2015-12-23T07:52:18.449Z,19.26
2015-12-23T07:53:18.451Z,19.24
2015-12-23T07:54:18.407Z,19.22
2015-12-23T07:55:18.348Z,19.22
2015-12-23T07:56:18.320Z,19.19
2015-12-23T07:57:18.307Z,19.19
2015-12-23T07:58:18.262Z,19.26
2015-12-23T07:59:18.235Z,19.21
2015-12-23T08:00:18.206Z,19.29
2015-12-23T08:01:18.192Z,19.11
2015-12-23T08:02:18.211Z,19.11
2015-12-23T08:03:18.104Z,19.15
2015-12-23T08:04:18.107Z,19.26
2015-12-23T08:05:18.062Z,19.21
2015-12-23T08:06:18.034Z,19.27
2015-12-23T08:07:18.006Z,19.21
2015-12-23T08:08:18.008Z,19.27
2015-12-23T08:09:17.945Z,19.27
2015-12-23T08:10:17.964Z,19.18
2015-12-23T08:11:18.076Z,19.18
2015-12-23T08:12:17.845Z,19.27
2015-12-23T08:13:17.832Z,19.24
2015-12-23T08:14:17.819Z,19.3
2015-12-23T08:15:17.758Z,19.31
2015-12-23T08:16:17.731Z,19.27
2015-12-23T08:17:17.686Z,19.29
2015-12-23T08:18:17.673Z,19.37
2015-12-23T08:19:17.661Z,19.33
2015-12-23T08:20:17.710Z,19.3
2015-12-23T08:21:17.666Z,19.36
2015-12-23T08:22:17.685Z,19.36
2015-12-23T08:23:17.531Z,19.29
2015-12-23T08:24:17.487Z,19.3
2015-12-23T08:25:17.475Z,19.41
2015-12-23T08:26:17.445Z,19.37
2015-12-23T08:27:17.448Z,19.33
2015-12-23T08:28:17.389Z,19.3
2015-12-23T08:29:17.375Z,19.31
2015-12-23T08:30:17.738Z,19.34
2015-12-23T08:31:17.303Z,19.3
2015-12-23T08:32:17.259Z,19.33
2015-12-23T08:33:17.246Z,19.31
2015-12-23T08:34:17.202Z,19.33
2015-12-23T08:35:17.174Z,19.36
2015-12-23T08:36:17.160Z,19.36
2015-12-23T08:37:17.133Z,19.31
2015-12-23T08:38:17.103Z,19.34
2015-12-23T08:39:17.075Z,19.36
2015-12-23T08:40:17.030Z,19.36
2015-12-23T08:41:16.283Z,19.36
2015-12-23T08:42:16.974Z,19.36
2015-12-23T08:43:16.946Z,19.26
2015-12-23T08:44:16.901Z,19.29
2015-12-23T08:45:16.888Z,19.36
2015-12-23T08:46:16.876Z,19.29
2015-12-23T08:47:16.832Z,19.29
2015-12-23T08:48:16.788Z,19.29
2015-12-23T08:49:16.775Z,19.37
2015-12-23T08:50:16.746Z,19.37
2015-12-23T08:51:16.780Z,19.4
2015-12-23T08:52:16.674Z,19.4
2015-12-23T08:53:16.661Z,19.41
2015-12-23T08:54:16.616Z,19.36
2015-12-23T08:55:16.619Z,19.51
2015-12-23T08:56:16.557Z,19.47
2015-12-23T08:57:16.637Z,19.52
2015-12-23T08:58:16.499Z,19.67
2015-12-23T08:59:16.487Z,19.76
2015-12-23T09:00:16.427Z,19.85
2015-12-23T09:01:16.445Z,20
2015-12-23T09:02:16.416Z,20.09
2015-12-23T09:03:16.373Z,20.14
2015-12-23T09:04:16.313Z,20.19
2015-12-23T09:05:16.316Z,20.25
2015-12-23T09:06:16.271Z,20.24
2015-12-23T09:07:16.259Z,20.22
2015-12-23T09:08:16.496Z,20.32
2015-12-23T09:09:16.185Z,20.36
2015-12-23T09:10:16.157Z,20.31
2015-12-23T09:11:16.457Z,20.39
2015-12-23T09:12:16.148Z,20.32
2015-12-23T09:13:16.071Z,20.32
2015-12-23T09:14:16.059Z,20.28
2015-12-23T09:15:16.031Z,20.31
2015-12-23T09:16:15.986Z,20.14
2015-12-23T09:17:15.958Z,20.09
2015-12-23T09:18:15.930Z,20.1
2015-12-23T09:19:15.901Z,20.03
2015-12-23T09:20:15.873Z,20
2015-12-23T09:21:15.860Z,19.94
2015-12-23T09:22:15.816Z,19.96
2015-12-23T09:23:15.865Z,19.95
2015-12-23T09:24:15.774Z,19.85
2015-12-23T09:25:15.714Z,19.84
2015-12-23T09:26:15.701Z,19.82
2015-12-23T09:27:15.657Z,19.84
2015-12-23T09:28:15.629Z,19.84
2015-12-23T09:29:15.601Z,19.82
2015-12-23T09:30:15.572Z,19.84
2015-12-23T09:31:15.168Z,19.88
2015-12-23T09:32:15.514Z,19.79
2015-12-23T09:33:15.502Z,19.77
2015-12-23T09:34:15.458Z,19.76
2015-12-23T09:35:15.429Z,19.71
2015-12-23T09:36:15.400Z,19.77
2015-12-23T09:37:15.450Z,19.77
2015-12-23T09:38:15.469Z,19.73
2015-12-23T09:39:15.299Z,19.79
2015-12-23T09:40:15.302Z,19.76
2015-12-23T09:41:15.289Z,19.73
2015-12-23T09:42:15.214Z,19.73
2015-12-23T09:43:15.216Z,19.77
2015-12-23T09:44:15.188Z,19.81
2015-12-23T09:45:15.159Z,19.82
2015-12-23T09:46:15.116Z,19.73
2015-12-23T09:47:15.086Z,19.76
2015-12-23T09:48:15.074Z,19.77
2015-12-23T09:49:15.013Z,19.81
2015-12-23T09:50:15.016Z,19.74
2015-12-23T09:51:15.066Z,19.89
2015-12-23T09:52:14.941Z,19.77
2015-12-23T09:53:14.913Z,19.86
2015-12-23T09:54:14.868Z,19.82
2015-12-23T09:55:14.856Z,19.84
2015-12-23T09:56:14.844Z,19.74
2015-12-23T09:57:14.814Z,19.77
2015-12-23T09:58:14.754Z,19.79
2015-12-23T09:59:14.741Z,19.76
2015-12-23T10:00:14.744Z,19.85
2015-12-23T10:01:14.669Z,19.91
2015-12-23T10:02:14.658Z,19.95
2015-12-23T10:03:14.613Z,19.85
2015-12-23T10:04:14.600Z,19.94
2015-12-23T10:05:14.571Z,19.94
2015-12-23T10:06:14.527Z,19.92
2015-12-23T10:07:14.499Z,19.86
2015-12-23T10:08:14.502Z,19.99
2015-12-23T10:09:14.472Z,19.85
2015-12-23T10:10:14.444Z,19.85
2015-12-23T10:11:14.385Z,19.86
2015-12-23T10:12:14.372Z,19.86
2015-12-23T10:13:13.828Z,19.86
2015-12-23T10:14:14.283Z,19.95
2015-12-23T10:15:14.270Z,19.82
2015-12-23T10:16:14.241Z,19.86
2015-12-23T10:17:14.213Z,19.85
2015-12-23T10:18:14.185Z,19.77
2015-12-23T10:19:14.141Z,19.86
2015-12-23T10:20:14.144Z,19.81
2015-12-23T10:21:17.193Z,19.77
2015-12-23T10:22:14.071Z,19.81
2015-12-23T10:23:14.027Z,19.82
2015-12-23T10:24:14.123Z,19.84
2015-12-23T10:25:14.001Z,19.84
2015-12-23T10:26:13.956Z,19.84
2015-12-23T10:27:13.959Z,19.85
2015-12-23T10:28:13.884Z,19.86
2015-12-23T10:29:13.887Z,19.92
2015-12-23T10:30:13.904Z,19.89
2015-12-23T10:31:13.798Z,19.86
2015-12-23T10:32:13.770Z,19.84
2015-12-23T10:33:13.757Z,19.84
2015-12-23T10:34:13.697Z,19.85
2015-12-23T10:35:13.684Z,19.85
2015-12-23T10:36:13.671Z,19.84
2015-12-23T10:37:13.627Z,19.81
2015-12-23T10:38:13.599Z,19.76
2015-12-23T10:39:13.571Z,19.77
2015-12-23T10:40:13.557Z,19.79
2015-12-23T10:41:13.763Z,19.77
2015-12-23T10:42:13.485Z,19.79
2015-12-23T10:43:13.472Z,19.88
2015-12-23T10:44:13.428Z,19.86
2015-12-23T10:45:13.414Z,19.81
2015-12-23T10:46:13.356Z,19.84
2015-12-23T10:47:15.906Z,20
2015-12-23T10:48:16.361Z,19.95
2015-12-23T10:49:13.300Z,19.86
2015-12-23T10:50:13.256Z,19.85
2015-12-23T10:51:13.244Z,19.84
2015-12-23T10:52:13.200Z,19.89
2015-12-23T10:53:13.171Z,19.82
2015-12-23T10:54:13.127Z,19.84
2015-12-23T10:55:13.114Z,19.84
2015-12-23T10:56:13.116Z,19.82
2015-12-23T10:57:13.058Z,19.77
2015-12-23T10:58:13.029Z,19.77
2015-12-23T10:59:12.984Z,19.74
2015-12-23T11:00:12.972Z,19.73
2015-12-23T11:01:12.941Z,19.73
2015-12-23T11:02:12.911Z,19.76
2015-12-23T11:03:12.883Z,19.69
2015-12-23T11:04:12.886Z,19.76
2015-12-23T11:05:12.826Z,19.76
2015-12-23T11:06:12.782Z,19.76
2015-12-23T11:07:12.785Z,19.71
2015-12-23T11:08:12.724Z,19.82
2015-12-23T11:09:12.712Z,19.81
2015-12-23T11:10:12.683Z,19.76
2015-12-23T11:11:12.655Z,19.76
2015-12-23T11:12:12.610Z,19.77
2015-12-23T11:13:12.660Z,19.88
2015-12-23T11:14:12.585Z,19.84
2015-12-23T11:15:12.524Z,19.91
2015-12-23T11:16:12.497Z,19.92
2015-12-23T11:17:12.484Z,20.04
2015-12-23T11:18:12.440Z,20.03
2015-12-23T11:19:12.410Z,19.96
2015-12-23T11:20:12.898Z,20.03
2015-12-23T11:21:11.870Z,20.02
2015-12-23T11:22:12.794Z,20.06
2015-12-23T11:23:12.796Z,20.09
2015-12-23T11:24:12.597Z,20.03
2015-12-23T11:25:12.662Z,20.06
2015-12-23T11:26:12.477Z,20.1
2015-12-23T11:27:12.432Z,20.16
2015-12-23T11:28:12.670Z,20.09
2015-12-23T11:29:12.423Z,20
2015-12-23T11:30:12.598Z,20.07
2015-12-23T11:31:12.366Z,20.02
2015-12-23T11:32:15.337Z,20
2015-12-23T11:33:12.434Z,20.02
2015-12-23T11:34:12.296Z,19.94
2015-12-23T11:35:12.346Z,19.94
2015-12-23T11:36:12.567Z,19.94
2015-12-23T11:37:12.101Z,19.96
2015-12-23T11:38:15.212Z,19.92
2015-12-23T11:39:12.185Z,19.92
2015-12-23T11:40:11.375Z,19.99
2015-12-23T11:41:12.081Z,19.95
2015-12-23T11:42:12.068Z,19.99
2015-12-23T11:43:12.226Z,20.02
2015-12-23T11:44:12.136Z,19.96
2015-12-23T11:45:11.998Z,19.95
2015-12-23T11:46:11.142Z,19.94
2015-12-23T11:47:12.192Z,20.07
2015-12-23T11:48:11.772Z,20.07
2015-12-23T11:49:14.884Z,20.14
2015-12-23T11:50:11.793Z,20.09
2015-12-23T11:51:11.843Z,20.19
2015-12-23T11:52:11.658Z,20.43
2015-12-23T11:53:11.692Z,20.51
2015-12-23T11:54:11.756Z,20.82
2015-12-23T11:55:11.744Z,20.84
2015-12-23T11:56:11.825Z,20.85
2015-12-23T11:57:11.719Z,20.7
2015-12-23T11:58:11.596Z,20.67
2015-12-23T11:59:11.583Z,20.6
2015-12-23T12:00:11.820Z,20.81
2015-12-23T12:01:11.555Z,20.9
2015-12-23T12:02:11.869Z,20.96
2015-12-23T12:03:14.813Z,20.97
2015-12-23T12:04:11.453Z,21.02
2015-12-23T12:05:11.596Z,21.03
2015-12-23T12:06:11.491Z,21.12
2015-12-23T12:07:11.211Z,21.06
2015-12-23T12:08:11.339Z,20.85
2015-12-23T12:09:11.216Z,20.93
2015-12-23T12:10:10.485Z,20.93
2015-12-23T12:11:11.347Z,20.95
2015-12-23T12:12:11.053Z,20.75
2015-12-23T12:13:11.197Z,20.81
2015-12-23T12:14:11.169Z,20.8
2015-12-23T12:15:11.108Z,20.77
2015-12-23T12:16:11.267Z,20.93
2015-12-23T12:17:11.113Z,20.97
2015-12-23T12:18:11.069Z,21
2015-12-23T12:19:11.197Z,20.96
2015-12-23T12:20:10.982Z,21.03
2015-12-23T12:21:10.906Z,21.07
2015-12-23T12:22:10.830Z,21.12
2015-12-23T12:23:10.818Z,21.17
2015-12-23T12:24:10.805Z,21.12
2015-12-23T12:25:10.793Z,21.14
2015-12-23T12:26:10.795Z,21.14
2015-12-23T12:27:10.891Z,21.12
2015-12-23T12:28:10.785Z,21.15
2015-12-23T12:29:10.756Z,21.21
2015-12-23T12:30:10.759Z,21.15
2015-12-23T12:31:10.620Z,21.25
2015-12-23T12:32:10.670Z,21.02
2015-12-23T12:33:10.564Z,20.87
2015-12-23T12:34:10.567Z,20.75
2015-12-23T12:35:10.507Z,20.59
2015-12-23T12:36:10.509Z,20.66
2015-12-23T12:37:10.481Z,20.65
2015-12-23T12:38:10.374Z,20.69
2015-12-23T12:39:13.612Z,20.7
2015-12-23T12:40:10.426Z,20.7
2015-12-23T12:41:10.382Z,20.77
2015-12-23T12:42:10.260Z,20.87
2015-12-23T12:43:10.247Z,20.92
2015-12-23T12:44:10.203Z,21
2015-12-23T12:45:13.487Z,21.09
2015-12-23T12:46:10.443Z,21.18
2015-12-23T12:47:10.243Z,21.18
2015-12-23T12:48:10.120Z,21.2
2015-12-23T12:49:10.076Z,21.2
2015-12-23T12:50:10.282Z,21.25
2015-12-23T12:51:10.864Z,21.18
2015-12-23T12:52:10.007Z,21.18
2015-12-23T12:53:09.806Z,21.07
2015-12-23T12:54:13.653Z,20.97
2015-12-23T12:55:10.171Z,21.05
2015-12-23T12:56:09.859Z,21
2015-12-23T12:57:09.846Z,20.82
2015-12-23T12:58:09.817Z,20.81